Craven, South Dakota
Current Conditions -  °F | °C
As of 1:53 PM on Friday 31 Oct 2014 (Local Time) from KABR Reporting Station
Clear Clear  
Wind Chill: 30°   Ceiling: Unl
Heat Index: 38°   Visibility: 10mi
Dew Point: 16°   Wind: 12mph
Humidity: 41%   Direction: 160°SSE
Pressure: 30.5"   Gusts: NA
Location:  45.4188°N, 99.0275°W
Report Text: KABR 311853Z AUTO 16010KT 10SM CLR 03/M09 A3050 RMK AO2 SLP345 T00331089
Loading
Personal Weather Stations






























Interactive Weather Map
Tropical Storm Tracking
New forecast layout! Learn more

10-Day Weather Forecast

Advertisements
Track Severe Weather on mobile